sensor_id;sensor_type;location;lat;lon;timestamp;pressure;altitude;pressure_sealevel;temperature;humidity
73671;BME280;61968;48.178;11.566;2023-03-01T00:00:04;96307.63;;;1.48;39.01
73671;BME280;61968;48.178;11.566;2023-03-01T00:02:32;96303.41;;;1.63;38.55
73671;BME280;61968;48.178;11.566;2023-03-01T00:04:58;96302.25;;;1.58;38.31
73671;BME280;61968;48.178;11.566;2023-03-01T00:07:26;96295.59;;;1.63;38.85
73671;BME280;61968;48.178;11.566;2023-03-01T00:09:52;96302.91;;;1.60;38.91
73671;BME280;61968;48.178;11.566;2023-03-01T00:12:19;96288.75;;;1.62;38.48
73671;BME280;61968;48.178;11.566;2023-03-01T00:14:46;96292.97;;;1.63;39.04
73671;BME280;61968;48.178;11.566;2023-03-01T00:17:12;96290.34;;;1.55;39.08
73671;BME280;61968;48.178;11.566;2023-03-01T00:19:39;96292.59;;;1.50;38.66
73671;BME280;61968;48.178;11.566;2023-03-01T00:22:05;96295.38;;;1.48;38.95
73671;BME280;61968;48.178;11.566;2023-03-01T00:24:33;96289.69;;;1.45;38.97
73671;BME280;61968;48.178;11.566;2023-03-01T00:26:59;96283.53;;;1.54;38.77
73671;BME280;61968;48.178;11.566;2023-03-01T00:29:26;96293.03;;;1.37;38.83
73671;BME280;61968;48.178;11.566;2023-03-01T00:31:52;96291.63;;;1.43;39.04
73671;BME280;61968;48.178;11.566;2023-03-01T00:34:19;96286.44;;;1.59;38.27
73671;BME280;61968;48.178;11.566;2023-03-01T00:36:45;96287.59;;;1.57;38.71
73671;BME280;61968;48.178;11.566;2023-03-01T00:39:13;96284.81;;;1.58;38.15
73671;BME280;61968;48.178;11.566;2023-03-01T00:41:41;96270.00;;;1.51;38.30
73671;BME280;61968;48.178;11.566;2023-03-01T00:44:08;96278.78;;;1.58;38.60
73671;BME280;61968;48.178;11.566;2023-03-01T00:46:34;96277.50;;;1.54;38.09
73671;BME280;61968;48.178;11.566;2023-03-01T00:49:01;96276.47;;;1.46;38.75
73671;BME280;61968;48.178;11.566;2023-03-01T00:51:30;96270.09;;;1.33;38.74
73671;BME280;61968;48.178;11.566;2023-03-01T00:53:58;96272.19;;;1.37;38.62
73671;BME280;61968;48.178;11.566;2023-03-01T00:56:26;96267.19;;;1.44;39.05
73671;BME280;61968;48.178;11.566;2023-03-01T00:58:53;96263.31;;;1.48;38.29
73671;BME280;61968;48.178;11.566;2023-03-01T01:01:22;96267.03;;;1.45;38.37
73671;BME280;61968;48.178;11.566;2023-03-01T01:03:51;96261.03;;;1.45;39.00
73671;BME280;61968;48.178;11.566;2023-03-01T01:06:19;96253.47;;;1.34;39.16
73671;BME280;61968;48.178;11.566;2023-03-01T01:08:47;96247.81;;;1.38;38.39
73671;BME280;61968;48.178;11.566;2023-03-01T01:11:14;96244.72;;;1.43;38.43
73671;BME280;61968;48.178;11.566;2023-03-01T01:13:41;96242.69;;;1.29;38.81
73671;BME280;61968;48.178;11.566;2023-03-01T01:16:11;96244.34;;;1.30;38.91
73671;BME280;61968;48.178;11.566;2023-03-01T01:18:38;96236.69;;;1.36;38.77
73671;BME280;61968;48.178;11.566;2023-03-01T01:21:07;96242.72;;;1.37;39.18
73671;BME280;61968;48.178;11.566;2023-03-01T01:23:33;96237.88;;;1.50;38.78
73671;BME280;61968;48.178;11.566;2023-03-01T01:26:04;96233.00;;;1.39;39.25
73671;BME280;61968;48.178;11.566;2023-03-01T01:28:30;96226.00;;;1.39;38.95
73671;BME280;61968;48.178;11.566;2023-03-01T01:30:57;96224.19;;;1.40;38.99
73671;BME280;61968;48.178;11.566;2023-03-01T01:33:25;96226.66;;;1.41;38.57
73671;BME280;61968;48.178;11.566;2023-03-01T01:35:52;96218.47;;;1.36;38.86
73671;BME280;61968;48.178;11.566;2023-03-01T01:38:18;96223.88;;;1.43;38.51
73671;BME280;61968;48.178;11.566;2023-03-01T01:40:46;96216.31;;;1.32;38.60
73671;BME280;61968;48.178;11.566;2023-03-01T01:43:18;96220.91;;;1.38;38.50
73671;BME280;61968;48.178;11.566;2023-03-01T01:45:45;96216.22;;;1.41;38.83
73671;BME280;61968;48.178;11.566;2023-03-01T01:48:12;96218.03;;;1.49;38.22
73671;BME280;61968;48.178;11.566;2023-03-01T01:50:41;96211.50;;;1.45;38.09
73671;BME280;61968;48.178;11.566;2023-03-01T01:53:14;96213.56;;;1.33;38.71
73671;BME280;61968;48.178;11.566;2023-03-01T01:55:43;96203.66;;;1.37;38.90
73671;BME280;61968;48.178;11.566;2023-03-01T01:58:15;96206.06;;;1.30;38.35
73671;BME280;61968;48.178;11.566;2023-03-01T02:00:43;96207.38;;;1.26;39.05
73671;BME280;61968;48.178;11.566;2023-03-01T02:03:10;96197.00;;;1.42;38.66
73671;BME280;61968;48.178;11.566;2023-03-01T02:05:44;96197.97;;;1.49;37.94
73671;BME280;61968;48.178;11.566;2023-03-01T02:08:14;96204.19;;;1.57;38.08
73671;BME280;61968;48.178;11.566;2023-03-01T02:10:42;96197.84;;;1.51;38.33
73671;BME280;61968;48.178;11.566;2023-03-01T02:13:09;96195.72;;;1.38;38.49
73671;BME280;61968;48.178;11.566;2023-03-01T02:15:38;96198.81;;;1.42;38.29
73671;BME280;61968;48.178;11.566;2023-03-01T02:18:06;96194.03;;;1.37;38.61
73671;BME280;61968;48.178;11.566;2023-03-01T02:20:37;96196.16;;;1.34;38.58
73671;BME280;61968;48.178;11.566;2023-03-01T02:23:08;96191.78;;;1.42;38.84
73671;BME280;61968;48.178;11.566;2023-03-01T02:25:40;96192.06;;;1.31;38.83
73671;BME280;61968;48.178;11.566;2023-03-01T02:28:25;96191.25;;;1.31;39.02
73671;BME280;61968;48.178;11.566;2023-03-01T02:30:53;96187.34;;;1.26;38.64
73671;BME280;61968;48.178;11.566;2023-03-01T02:33:39;96181.31;;;1.34;38.77
73671;BME280;61968;48.178;11.566;2023-03-01T02:36:09;96184.06;;;1.08;38.40
73671;BME280;61968;48.178;11.566;2023-03-01T02:38:38;96180.16;;;1.12;39.23
73671;BME280;61968;48.178;11.566;2023-03-01T02:41:06;96181.66;;;1.23;39.07
73671;BME280;61968;48.178;11.566;2023-03-01T02:43:35;96185.06;;;1.32;38.34
73671;BME280;61968;48.178;11.566;2023-03-01T02:46:05;96175.63;;;1.31;38.24
73671;BME280;61968;48.178;11.566;2023-03-01T02:48:40;96179.19;;;1.21;38.38
73671;BME280;61968;48.178;11.566;2023-03-01T02:51:17;96173.00;;;1.22;38.05
73671;BME280;61968;48.178;11.566;2023-03-01T02:53:52;96172.03;;;1.23;38.60
73671;BME280;61968;48.178;11.566;2023-03-01T02:56:19;96172.69;;;1.25;37.91
73671;BME280;61968;48.178;11.566;2023-03-01T02:58:48;96165.81;;;1.16;38.43
73671;BME280;61968;48.178;11.566;2023-03-01T03:01:17;96175.47;;;1.24;37.53
73671;BME280;61968;48.178;11.566;2023-03-01T03:03:43;96169.91;;;1.19;38.07
73671;BME280;61968;48.178;11.566;2023-03-01T03:06:10;96170.09;;;1.17;38.39
73671;BME280;61968;48.178;11.566;2023-03-01T03:08:36;96176.56;;;1.05;38.01
73671;BME280;61968;48.178;11.566;2023-03-01T03:11:03;96176.56;;;1.05;38.21
73671;BME280;61968;48.178;11.566;2023-03-01T03:13:30;96172.84;;;1.24;37.93
73671;BME280;61968;48.178;11.566;2023-03-01T03:15:58;96174.63;;;1.15;37.61
73671;BME280;61968;48.178;11.566;2023-03-01T03:18:25;96179.19;;;1.21;37.98
73671;BME280;61968;48.178;11.566;2023-03-01T03:20:52;96179.84;;;1.15;37.77
73671;BME280;61968;48.178;11.566;2023-03-01T03:23:20;96175.28;;;1.25;37.34
73671;BME280;61968;48.178;11.566;2023-03-01T03:25:48;96175.28;;;1.09;37.80
73671;BME280;61968;48.178;11.566;2023-03-01T03:28:15;96174.91;;;0.96;37.95
73671;BME280;61968;48.178;11.566;2023-03-01T03:30:43;96170.34;;;0.98;38.19
73671;BME280;61968;48.178;11.566;2023-03-01T03:33:11;96168.25;;;1.01;38.31
73671;BME280;61968;48.178;11.566;2023-03-01T03:35:41;96164.84;;;1.09;37.72
73671;BME280;61968;48.178;11.566;2023-03-01T03:38:10;96169.75;;;1.12;37.79
73671;BME280;61968;48.178;11.566;2023-03-01T03:40:43;96165.50;;;1.11;37.66
73671;BME280;61968;48.178;11.566;2023-03-01T03:43:11;96167.44;;;1.01;38.02
73671;BME280;61968;48.178;11.566;2023-03-01T03:45:38;96163.19;;;1.00;38.60
73671;BME280;61968;48.178;11.566;2023-03-01T03:48:12;96162.03;;;0.94;38.38
73671;BME280;61968;48.178;11.566;2023-03-01T03:50:38;96157.03;;;1.09;38.43
73671;BME280;61968;48.178;11.566;2023-03-01T03:53:07;96161.09;;;1.03;37.70
73671;BME280;61968;48.178;11.566;2023-03-01T03:55:35;96155.41;;;1.08;37.56
73671;BME280;61968;48.178;11.566;2023-03-01T03:58:05;96161.44;;;1.17;37.53
73671;BME280;61968;48.178;11.566;2023-03-01T04:00:33;96154.91;;;1.13;37.55
73671;BME280;61968;48.178;11.566;2023-03-01T04:03:00;96153.94;;;1.06;38.04
73671;BME280;61968;48.178;11.566;2023-03-01T04:05:29;96144.66;;;1.03;38.22
73671;BME280;61968;48.178;11.566;2023-03-01T04:07:56;96146.13;;;1.06;37.95
73671;BME280;61968;48.178;11.566;2023-03-01T04:10:34;96144.50;;;1.13;37.72
73671;BME280;61968;48.178;11.566;2023-03-01T04:13:01;96135.53;;;1.07;38.22
73671;BME280;61968;48.178;11.566;2023-03-01T04:15:27;96143.53;;;1.06;38.30
73671;BME280;61968;48.178;11.566;2023-03-01T04:17:55;96137.63;;;0.95;37.92
73671;BME280;61968;48.178;11.566;2023-03-01T04:20:23;96144.97;;;1.00;38.48
73671;BME280;61968;48.178;11.566;2023-03-01T04:22:52;96143.22;;;1.09;37.98
73671;BME280;61968;48.178;11.566;2023-03-01T04:25:22;96144.34;;;1.06;38.12
73671;BME280;61968;48.178;11.566;2023-03-01T04:27:49;96147.41;;;1.01;38.07
73671;BME280;61968;48.178;11.566;2023-03-01T04:30:16;96142.13;;;1.68;57.14
73671;BME280;61968;48.178;11.566;2023-03-01T04:32:42;96141.97;;;3.96;42.39
73671;BME280;61968;48.178;11.566;2023-03-01T04:35:09;96138.44;;;4.04;39.21
73671;BME280;61968;48.178;11.566;2023-03-01T04:37:35;96141.06;;;4.63;35.69
73671;BME280;61968;48.178;11.566;2023-03-01T04:40:04;96130.31;;;4.58;36.00
73671;BME280;61968;48.178;11.566;2023-03-01T04:42:38;96131.72;;;5.05;34.14
73671;BME280;61968;48.178;11.566;2023-03-01T04:45:06;96128.00;;;4.34;33.61
73671;BME280;61968;48.178;11.566;2023-03-01T04:47:38;96132.44;;;3.43;33.94
73671;BME280;61968;48.178;11.566;2023-03-01T04:50:06;96131.06;;;3.01;33.53
73671;BME280;61968;48.178;11.566;2023-03-01T04:52:32;96139.13;;;2.60;33.89
73671;BME280;61968;48.178;11.566;2023-03-01T04:54:59;96129.25;;;2.39;35.46
73671;BME280;61968;48.178;11.566;2023-03-01T04:57:27;96130.47;;;2.20;35.82
73671;BME280;61968;48.178;11.566;2023-03-01T04:59:53;96128.72;;;1.96;35.97
73671;BME280;61968;48.178;11.566;2023-03-01T05:02:20;96138.03;;;1.82;36.81
73671;BME280;61968;48.178;11.566;2023-03-01T05:04:46;96126.81;;;1.65;35.91
73671;BME280;61968;48.178;11.566;2023-03-01T05:07:13;96125.50;;;1.69;36.06
73671;BME280;61968;48.178;11.566;2023-03-01T05:09:45;96120.28;;;1.53;36.36
73671;BME280;61968;48.178;11.566;2023-03-01T05:12:11;96120.94;;;1.55;36.58
73671;BME280;61968;48.178;11.566;2023-03-01T05:14:39;96128.25;;;1.27;36.89
73671;BME280;61968;48.178;11.566;2023-03-01T05:17:06;96120.56;;;1.25;36.85
73671;BME280;61968;48.178;11.566;2023-03-01T05:19:32;96130.16;;;1.17;36.65
73671;BME280;61968;48.178;11.566;2023-03-01T05:21:59;96128.69;;;0.90;37.21
73671;BME280;61968;48.178;11.566;2023-03-01T05:24:30;96122.53;;;0.99;37.58
73671;BME280;61968;48.178;11.566;2023-03-01T05:26:56;96127.41;;;1.10;36.77
73671;BME280;61968;48.178;11.566;2023-03-01T05:29:25;96119.75;;;1.17;36.65
73671;BME280;61968;48.178;11.566;2023-03-01T05:31:54;96129.03;;;1.03;37.38
73671;BME280;61968;48.178;11.566;2023-03-01T05:34:23;96123.47;;;0.98;37.76
73671;BME280;61968;48.178;11.566;2023-03-01T05:36:50;96119.56;;;0.94;37.46
73671;BME280;61968;48.178;11.566;2023-03-01T05:39:19;96130.47;;;0.81;37.51
73671;BME280;61968;48.178;11.566;2023-03-01T05:41:47;96124.88;;;0.68;37.76
73671;BME280;61968;48.178;11.566;2023-03-01T05:44:13;96114.44;;;0.51;38.36
73671;BME280;61968;48.178;11.566;2023-03-01T05:46:41;96115.78;;;0.72;37.77
73671;BME280;61968;48.178;11.566;2023-03-01T05:49:08;96116.91;;;0.69;37.46
73671;BME280;61968;48.178;11.566;2023-03-01T05:51:35;96119.81;;;0.58;38.02
73671;BME280;61968;48.178;11.566;2023-03-01T05:54:02;96117.91;;;0.76;37.01
73671;BME280;61968;48.178;11.566;2023-03-01T05:56:32;96114.59;;;0.58;37.51
73671;BME280;61968;48.178;11.566;2023-03-01T05:58:58;96108.25;;;0.52;38.03
73671;BME280;61968;48.178;11.566;2023-03-01T06:01:25;96113.91;;;0.40;37.92
73671;BME280;61968;48.178;11.566;2023-03-01T06:03:51;96118.97;;;0.49;38.24
73671;BME280;61968;48.178;11.566;2023-03-01T06:06:19;96124.34;;;0.48;38.11
73671;BME280;61968;48.178;11.566;2023-03-01T06:08:45;96116.03;;;0.52;38.06
73671;BME280;61968;48.178;11.566;2023-03-01T06:11:12;96125.50;;;0.62;38.34
73671;BME280;61968;48.178;11.566;2023-03-01T06:13:38;96126.53;;;0.69;37.99
73671;BME280;61968;48.178;11.566;2023-03-01T06:16:05;96130.28;;;0.83;37.63
73671;BME280;61968;48.178;11.566;2023-03-01T06:18:32;96128.34;;;0.85;37.67
73671;BME280;61968;48.178;11.566;2023-03-01T06:20:58;96124.72;;;0.77;37.45
73671;BME280;61968;48.178;11.566;2023-03-01T06:23:26;96126.84;;;0.74;37.81
73671;BME280;61968;48.178;11.566;2023-03-01T06:25:53;96127.00;;;0.72;37.78
73671;BME280;61968;48.178;11.566;2023-03-01T06:28:19;96128.63;;;0.73;38.23
73671;BME280;61968;48.178;11.566;2023-03-01T06:30:46;96134.97;;;0.71;38.05
73671;BME280;61968;48.178;11.566;2023-03-01T06:33:13;96134.47;;;0.67;38.00
73671;BME280;61968;48.178;11.566;2023-03-01T06:35:40;96137.41;;;0.64;38.73
73671;BME280;61968;48.178;11.566;2023-03-01T06:38:06;96131.84;;;0.51;38.52
73671;BME280;61968;48.178;11.566;2023-03-01T06:40:34;96134.28;;;0.61;38.74
73671;BME280;61968;48.178;11.566;2023-03-01T06:43:01;96140.31;;;0.61;38.34
73671;BME280;61968;48.178;11.566;2023-03-01T06:45:27;96134.88;;;0.46;38.16
73671;BME280;61968;48.178;11.566;2023-03-01T06:48:01;96128.91;;;0.54;38.85
73671;BME280;61968;48.178;11.566;2023-03-01T06:50:28;96143.91;;;0.60;38.11
73671;BME280;61968;48.178;11.566;2023-03-01T06:52:55;96137.25;;;0.66;37.93
73671;BME280;61968;48.178;11.566;2023-03-01T06:55:22;96136.53;;;0.55;37.92
73671;BME280;61968;48.178;11.566;2023-03-01T06:57:54;96126.31;;;0.62;37.84
73671;BME280;61968;48.178;11.566;2023-03-01T07:00:21;96125.66;;;0.52;38.04
73671;BME280;61968;48.178;11.566;2023-03-01T07:02:47;96128.91;;;0.54;37.70
73671;BME280;61968;48.178;11.566;2023-03-01T07:05:14;96131.66;;;0.52;37.76
73671;BME280;61968;48.178;11.566;2023-03-01T07:07:40;96133.53;;;0.34;37.85
73671;BME280;61968;48.178;11.566;2023-03-01T07:10:08;96139.91;;;0.40;37.72
73671;BME280;61968;48.178;11.566;2023-03-01T07:12:35;96131.56;;;0.28;39.48
73671;BME280;61968;48.178;11.566;2023-03-01T07:15:04;96142.22;;;0.51;38.93
73671;BME280;61968;48.178;11.566;2023-03-01T07:17:31;96132.78;;;0.50;38.69
73671;BME280;61968;48.178;11.566;2023-03-01T07:19:57;96128.06;;;0.45;38.23
73671;BME280;61968;48.178;11.566;2023-03-01T07:22:24;96119.97;;;0.65;37.96
73671;BME280;61968;48.178;11.566;2023-03-01T07:24:50;96117.56;;;0.63;38.11
73671;BME280;61968;48.178;11.566;2023-03-01T07:27:17;96114.09;;;0.54;38.07
73671;BME280;61968;48.178;11.566;2023-03-01T07:29:43;96112.59;;;0.44;38.56
73671;BME280;61968;48.178;11.566;2023-03-01T07:32:11;96117.00;;;0.43;38.39
73671;BME280;61968;48.178;11.566;2023-03-01T07:34:39;96109.72;;;0.55;38.68
73671;BME280;61968;48.178;11.566;2023-03-01T07:37:05;96109.25;;;0.60;37.93
73671;BME280;61968;48.178;11.566;2023-03-01T07:39:32;96110.38;;;0.57;38.05
73671;BME280;61968;48.178;11.566;2023-03-01T07:41:58;96110.38;;;0.65;37.80
73671;BME280;61968;48.178;11.566;2023-03-01T07:44:25;96108.41;;;0.59;38.42
73671;BME280;61968;48.178;11.566;2023-03-01T07:46:51;96101.28;;;0.61;38.08
73671;BME280;61968;48.178;11.566;2023-03-01T07:49:22;96104.06;;;0.68;37.94
73671;BME280;61968;48.178;11.566;2023-03-01T07:51:49;96094.59;;;0.58;37.36
73671;BME280;61968;48.178;11.566;2023-03-01T07:54:15;96104.81;;;0.52;37.86
73671;BME280;61968;48.178;11.566;2023-03-01T07:56:43;96109.72;;;0.55;38.00
73671;BME280;61968;48.178;11.566;2023-03-01T07:59:09;96105.53;;;0.70;37.46
73671;BME280;61968;48.178;11.566;2023-03-01T08:01:36;96101.91;;;0.55;37.66
73671;BME280;61968;48.178;11.566;2023-03-01T08:04:02;96095.94;;;0.71;37.75
73671;BME280;61968;48.178;11.566;2023-03-01T08:06:34;96103.25;;;0.67;37.58
73671;BME280;61968;48.178;11.566;2023-03-01T08:09:01;96107.47;;;0.60;37.80
73671;BME280;61968;48.178;11.566;2023-03-01T08:11:28;96092.63;;;0.52;37.76
73671;BME280;61968;48.178;11.566;2023-03-01T08:13:54;96095.13;;;0.70;37.45
73671;BME280;61968;48.178;11.566;2023-03-01T08:16:21;96095.28;;;0.69;37.79
73671;BME280;61968;48.178;11.566;2023-03-01T08:18:48;96093.66;;;0.60;38.02
73671;BME280;61968;48.178;11.566;2023-03-01T08:21:16;96087.47;;;0.77;37.67
73671;BME280;61968;48.178;11.566;2023-03-01T08:23:44;96090.91;;;0.77;37.61
73671;BME280;61968;48.178;11.566;2023-03-01T08:26:12;96093.19;;;0.72;37.81
73671;BME280;61968;48.178;11.566;2023-03-01T08:28:40;96099.84;;;0.83;37.95
73671;BME280;61968;48.178;11.566;2023-03-01T08:31:13;96089.63;;;0.98;36.91
73671;BME280;61968;48.178;11.566;2023-03-01T08:33:40;96094.69;;;0.99;36.83
73671;BME280;61968;48.178;11.566;2023-03-01T08:36:07;96092.56;;;0.95;37.06
73671;BME280;61968;48.178;11.566;2023-03-01T08:38:34;96094.84;;;0.90;37.19
73671;BME280;61968;48.178;11.566;2023-03-01T08:41:03;96081.81;;;0.82;37.47
73671;BME280;61968;48.178;11.566;2023-03-01T08:43:29;96085.22;;;0.82;37.21
73671;BME280;61968;48.178;11.566;2023-03-01T08:45:56;96078.06;;;0.92;36.93
73671;BME280;61968;48.178;11.566;2023-03-01T08:48:22;96082.16;;;0.87;37.19
73671;BME280;61968;48.178;11.566;2023-03-01T08:50:50;96076.31;;;0.93;37.50
73671;BME280;61968;48.178;11.566;2023-03-01T08:53:16;96075.28;;;0.86;37.52
73671;BME280;61968;48.178;11.566;2023-03-01T08:55:43;96075.47;;;0.92;37.20
73671;BME280;61968;48.178;11.566;2023-03-01T08:58:10;96072.03;;;0.84;37.62
73671;BME280;61968;48.178;11.566;2023-03-01T09:00:37;96070.09;;;0.94;37.38
73671;BME280;61968;48.178;11.566;2023-03-01T09:03:04;96072.19;;;0.74;37.45
73671;BME280;61968;48.178;11.566;2023-03-01T09:05:31;96074.63;;;0.67;37.83
73671;BME280;61968;48.178;11.566;2023-03-01T09:07:58;96069.78;;;0.89;38.08
73671;BME280;61968;48.178;11.566;2023-03-01T09:10:24;96067.34;;;1.03;37.91
73671;BME280;61968;48.178;11.566;2023-03-01T09:12:51;96069.78;;;0.89;37.51
73671;BME280;61968;48.178;11.566;2023-03-01T09:15:19;96074.66;;;0.92;37.66
73671;BME280;61968;48.178;11.566;2023-03-01T09:17:45;96082.97;;;0.87;37.76
73671;BME280;61968;48.178;11.566;2023-03-01T09:20:12;96069.94;;;1.03;37.31
73671;BME280;61968;48.178;11.566;2023-03-01T09:22:38;96066.38;;;1.13;37.65
73671;BME280;61968;48.178;11.566;2023-03-01T09:25:05;96075.31;;;0.94;37.38
73671;BME280;61968;48.178;11.566;2023-03-01T09:27:32;96070.06;;;0.77;37.50
73671;BME280;61968;48.178;11.566;2023-03-01T09:29:58;96076.75;;;0.72;38.60
73671;BME280;61968;48.178;11.566;2023-03-01T09:32:26;96075.91;;;0.71;38.82
73671;BME280;61968;48.178;11.566;2023-03-01T09:34:53;96066.06;;;0.99;38.01
73671;BME280;61968;48.178;11.566;2023-03-01T09:37:30;96065.41;;;1.06;38.12
73671;BME280;61968;48.178;11.566;2023-03-01T09:39:57;96061.00;;;1.14;37.91
73671;BME280;61968;48.178;11.566;2023-03-01T09:42:24;96056.13;;;1.27;37.55
73671;BME280;61968;48.178;11.566;2023-03-01T09:44:53;96054.81;;;1.23;37.82
73671;BME280;61968;48.178;11.566;2023-03-01T09:47:24;96051.56;;;1.30;37.31
73671;BME280;61968;48.178;11.566;2023-03-01T09:49:59;96060.66;;;1.34;37.62
73671;BME280;61968;48.178;11.566;2023-03-01T09:52:33;96049.44;;;1.33;37.28
73671;BME280;61968;48.178;11.566;2023-03-01T09:55:01;96054.50;;;1.26;37.91
73671;BME280;61968;48.178;11.566;2023-03-01T09:57:36;96051.09;;;1.26;38.41
73671;BME280;61968;48.178;11.566;2023-03-01T10:00:16;96053.22;;;1.39;38.10
73671;BME280;61968;48.178;11.566;2023-03-01T10:02:48;96054.16;;;1.38;37.29
73671;BME280;61968;48.178;11.566;2023-03-01T10:05:28;96055.78;;;1.47;36.54
73671;BME280;61968;48.178;11.566;2023-03-01T10:08:04;96050.63;;;1.39;37.52
73671;BME280;61968;48.178;11.566;2023-03-01T10:10:38;96031.38;;;1.40;37.11
73671;BME280;61968;48.178;11.566;2023-03-01T10:13:12;96033.31;;;1.38;36.92
73671;BME280;61968;48.178;11.566;2023-03-01T10:15:43;96039.69;;;1.43;37.11
73671;BME280;61968;48.178;11.566;2023-03-01T10:18:13;96034.13;;;1.46;37.00
73671;BME280;61968;48.178;11.566;2023-03-01T10:20:48;96032.00;;;1.50;36.99
73671;BME280;61968;48.178;11.566;2023-03-01T10:23:17;96030.53;;;1.56;37.35
73671;BME280;61968;48.178;11.566;2023-03-01T10:25:51;96028.59;;;1.49;36.89
73671;BME280;61968;48.178;11.566;2023-03-01T10:28:26;96028.25;;;1.53;37.43
73671;BME280;61968;48.178;11.566;2023-03-01T10:30:56;96029.88;;;1.62;37.42
73671;BME280;61968;48.178;11.566;2023-03-01T10:33:26;96030.88;;;1.53;37.17
73671;BME280;61968;48.178;11.566;2023-03-01T10:35:55;96029.84;;;1.70;37.29
73671;BME280;61968;48.178;11.566;2023-03-01T10:38:21;96027.25;;;1.70;36.88
73671;BME280;61968;48.178;11.566;2023-03-01T10:40:53;96031.47;;;1.71;37.33
73671;BME280;61968;48.178;11.566;2023-03-01T10:43:22;96032.47;;;1.70;36.68
73671;BME280;61968;48.178;11.566;2023-03-01T10:45:49;96029.06;;;1.69;36.97
73671;BME280;61968;48.178;11.566;2023-03-01T10:48:18;96017.28;;;1.74;37.22
73671;BME280;61968;48.178;11.566;2023-03-01T10:50:47;96015.16;;;1.85;37.19
73671;BME280;61968;48.178;11.566;2023-03-01T10:53:26;96008.78;;;1.88;36.49
73671;BME280;61968;48.178;11.566;2023-03-01T10:55:59;96003.56;;;1.88;36.84
73671;BME280;61968;48.178;11.566;2023-03-01T10:58:28;95998.66;;;1.93;36.58
73671;BME280;61968;48.178;11.566;2023-03-01T11:00:56;95990.84;;;1.93;36.09
73671;BME280;61968;48.178;11.566;2023-03-01T11:03:24;95990.50;;;1.96;37.48
73671;BME280;61968;48.178;11.566;2023-03-01T11:06:04;95982.22;;;2.24;36.58
73671;BME280;61968;48.178;11.566;2023-03-01T11:08:40;95976.25;;;2.07;36.31
73671;BME280;61968;48.178;11.566;2023-03-01T11:11:21;95970.38;;;2.13;36.62
73671;BME280;61968;48.178;11.566;2023-03-01T11:13:55;95963.97;;;2.24;36.47
73671;BME280;61968;48.178;11.566;2023-03-01T11:19:18;95959.66;;;2.31;36.61
73671;BME280;61968;48.178;11.566;2023-03-01T11:21:58;95943.09;;;2.24;35.90
73671;BME280;61968;48.178;11.566;2023-03-01T11:24:31;95937.47;;;2.35;36.25
73671;BME280;61968;48.178;11.566;2023-03-01T11:27:03;95937.69;;;2.48;36.21
73671;BME280;61968;48.178;11.566;2023-03-01T11:29:34;95938.56;;;2.63;36.17
73671;BME280;61968;48.178;11.566;2023-03-01T11:32:06;95930.28;;;2.60;36.33
73671;BME280;61968;48.178;11.566;2023-03-01T11:34:39;95935.59;;;2.67;36.40
73671;BME280;61968;48.178;11.566;2023-03-01T11:37:21;95922.56;;;2.67;36.21
73671;BME280;61968;48.178;11.566;2023-03-01T11:39:56;95926.91;;;2.74;35.62
73671;BME280;61968;48.178;11.566;2023-03-01T11:42:30;95912.59;;;2.85;35.94
73671;BME280;61968;48.178;11.566;2023-03-01T11:45:05;95919.66;;;2.99;35.47
73671;BME280;61968;48.178;11.566;2023-03-01T11:47:44;95916.41;;;2.97;35.34
73671;BME280;61968;48.178;11.566;2023-03-01T11:50:19;95905.78;;;2.99;35.38
73671;BME280;61968;48.178;11.566;2023-03-01T11:53:01;95904.50;;;2.95;35.34
73671;BME280;61968;48.178;11.566;2023-03-01T11:55:52;95904.34;;;2.96;35.76
73671;BME280;61968;48.178;11.566;2023-03-01T11:58:53;95901.13;;;3.09;35.59
73671;BME280;61968;48.178;11.566;2023-03-01T12:01:32;95901.56;;;3.13;35.80
73671;BME280;61968;48.178;11.566;2023-03-01T12:04:23;95908.19;;;3.38;35.38
73671;BME280;61968;48.178;11.566;2023-03-01T12:06:57;95902.13;;;3.52;35.10
73671;BME280;61968;48.178;11.566;2023-03-01T12:09:49;95905.84;;;3.43;35.30
73671;BME280;61968;48.178;11.566;2023-03-01T12:12:29;95892.59;;;3.45;35.02
73671;BME280;61968;48.178;11.566;2023-03-01T12:18:25;95883.19;;;5.44;52.21
73671;BME280;61968;48.178;11.566;2023-03-01T12:21:04;95874.63;;;6.91;45.02
73671;BME280;61968;48.178;11.566;2023-03-01T12:23:58;95872.06;;;7.69;42.19
73671;BME280;61968;48.178;11.566;2023-03-01T12:26:32;95866.47;;;8.04;37.57
73671;BME280;61968;48.178;11.566;2023-03-01T12:29:23;95862.41;;;7.43;40.58
73671;BME280;61968;48.178;11.566;2023-03-01T12:32:00;95872.59;;;7.06;44.81
73671;BME280;61968;48.178;11.566;2023-03-01T12:34:50;95862.31;;;6.91;40.39
73671;BME280;61968;48.178;11.566;2023-03-01T12:37:26;95855.84;;;6.81;39.69
73671;BME280;61968;48.178;11.566;2023-03-01T12:42:49;95851.00;;;6.78;44.35
73671;BME280;61968;48.178;11.566;2023-03-01T12:45:47;95840.91;;;6.74;37.99
73671;BME280;61968;48.178;11.566;2023-03-01T12:48:26;95834.00;;;6.87;42.07
73671;BME280;61968;48.178;11.566;2023-03-01T12:50:59;95854.03;;;7.73;46.86
73671;BME280;61968;48.178;11.566;2023-03-01T12:53:30;95840.22;;;8.22;31.69
73671;BME280;61968;48.178;11.566;2023-03-01T12:56:01;95856.34;;;7.42;30.18
73671;BME280;61968;48.178;11.566;2023-03-01T12:58:31;95849.56;;;7.02;31.43
73671;BME280;61968;48.178;11.566;2023-03-01T13:01:11;95839.06;;;6.55;31.30
73671;BME280;61968;48.178;11.566;2023-03-01T13:04:12;95843.72;;;6.33;32.35
73671;BME280;61968;48.178;11.566;2023-03-01T13:06:44;95851.38;;;6.28;31.78
73671;BME280;61968;48.178;11.566;2023-03-01T13:09:20;95839.88;;;6.29;32.16
73671;BME280;61968;48.178;11.566;2023-03-01T13:11:49;95844.06;;;6.23;32.36
73671;BME280;61968;48.178;11.566;2023-03-01T13:17:02;95836.78;;;6.19;32.43
73671;BME280;61968;48.178;11.566;2023-03-01T13:19:28;95847.88;;;6.07;32.15
73671;BME280;61968;48.178;11.566;2023-03-01T13:21:57;95853.13;;;6.07;32.06
73671;BME280;61968;48.178;11.566;2023-03-01T13:24:26;95847.25;;;5.99;31.88